Time;durP1;ratioP1;P1;durP2;ratioP2;P2;SDS_P1;SDS_P2;PMS_P1;PMS_P2;Temp;Humidity;BMP_temperature;BMP_pressure;BME280_temperature;BME280_humidity;BME280_pressure;Samples;Min_cycle;Max_cycle;Signal;HPM_P1;HPM_P2
2021/07/29 13:55:04;;;;;;;6.15;2.30;;;;;;;26.33;38.37;100081.83;4938841;59;21122;-75
2021/07/29 14:00:12;;;;;;;7.87;1.90;;;;;;;26.54;39.27;100073.16;4935139;59;21188;-77
2021/07/29 14:05:19;;;;;;;2.15;2.00;;;;;;;26.71;38.62;100078.19;4905545;60;21122;-78
2021/07/29 14:10:24;;;;;;;2.40;2.22;;;;;;;26.58;39.92;100080.56;4978944;59;21250;-77
2021/07/29 14:15:30;;;;;;;7.00;2.17;;;;;;;26.37;40.05;100066.22;4856730;60;21182;-77
2021/07/29 14:20:42;;;;;;;1.90;1.60;;;;;;;26.45;40.01;100071.30;4955133;59;21180;-78
2021/07/29 14:25:44;;;;;;;5.45;1.67;;;;;;;26.55;38.03;100072.09;4958662;58;21907;-77
2021/07/29 14:30:50;;;;;;;2.98;2.05;;;;;;;26.69;39.73;100066.73;4982680;58;21454;-78
2021/07/29 14:36:01;;;;;;;6.17;1.85;;;;;;;26.42;38.48;100062.83;4964415;59;21695;-76
2021/07/29 14:41:03;;;;;;;4.60;1.90;;;;;;;26.06;38.96;100080.84;4974669;58;21232;-75
2021/07/29 14:51:15;;;;;;;4.90;1.60;;;;;;;25.98;38.29;100062.71;4899663;58;21508;-77
2021/07/29 14:56:27;;;;;;;3.37;2.22;;;;;;;25.90;38.73;100066.59;4884299;57;21528;-78
2021/07/29 16:11:38;;;;;;;3.80;3.42;;;;;;;25.54;41.07;100057.44;4897128;59;21578;-78
2021/07/29 16:16:49;;;;;;;3.55;3.05;;;;;;;25.51;41.40;100052.47;4883187;59;21210;-76
2021/07/29 16:21:53;;;;;;;6.37;4.22;;;;;;;25.47;41.24;100052.65;4873171;59;22131;-77
2021/07/29 16:26:58;;;;;;;3.90;2.92;;;;;;;25.41;41.83;100052.72;4902769;59;21218;-77
2021/07/29 16:32:06;;;;;;;4.30;2.95;;;;;;;25.35;42.24;100060.41;4899250;59;21204;-80
2021/07/29 16:37:12;;;;;;;2.80;2.40;;;;;;;25.29;42.54;100060.77;4943277;58;21137;-77
2021/07/29 16:42:18;;;;;;;6.17;2.50;;;;;;;25.23;42.60;100057.08;4940493;58;21174;-77
2021/07/29 16:47:23;;;;;;;2.95;2.50;;;;;;;25.32;42.70;100054.91;4946096;59;21525;-80
2021/07/29 16:52:29;;;;;;;4.72;2.30;;;;;;;25.31;42.65;100050.55;4944953;58;21496;-77
2021/07/29 16:57:35;;;;;;;11.22;2.47;;;;;;;25.28;41.79;100048.29;4845638;59;21290;-77
2021/07/29 17:02:41;;;;;;;5.15;3.02;;;;;;;25.29;41.62;100055.36;5020765;58;21210;-76
2021/07/29 17:07:46;;;;;;;2.47;2.27;;;;;;;25.26;41.69;100052.27;5013954;58;21162;-75
2021/07/29 17:12:54;;;;;;;8.73;2.17;;;;;;;25.27;41.28;100046.63;4952005;58;21165;-77
2021/07/29 17:17:59;;;;;;;4.67;2.67;;;;;;;25.20;41.22;100049.96;4953506;59;21222;-76
2021/07/29 17:23:05;;;;;;;6.05;2.17;;;;;;;25.05;41.31;100053.56;4957702;60;21711;-75
2021/07/29 17:28:12;;;;;;;6.92;2.47;;;;;;;24.93;41.36;100047.19;4953985;60;21608;-76
2021/07/29 17:33:17;;;;;;;3.37;2.17;;;;;;;24.86;41.83;100050.80;4931616;59;21202;-76
2021/07/29 17:38:23;;;;;;;2.90;2.55;;;;;;;24.84;42.40;100053.42;4925996;59;21182;-76
2021/07/29 17:43:28;;;;;;;12.35;2.47;;;;;;;24.77;41.85;100052.12;4906667;60;22156;-75
2021/07/29 17:48:35;;;;;;;4.95;2.72;;;;;;;24.69;42.06;100053.77;4991015;59;21250;-76
2021/07/29 17:53:41;;;;;;;5.95;2.12;;;;;;;24.54;42.10;100055.98;4981225;59;21171;-76
2021/07/29 17:58:46;;;;;;;4.58;2.40;;;;;;;24.41;42.18;100056.10;4936757;58;21170;-75
2021/07/29 18:03:52;;;;;;;4.65;2.75;;;;;;;24.31;42.53;100059.80;4939836;58;21119;-75
2021/07/29 18:08:58;;;;;;;8.70;2.40;;;;;;;24.19;42.87;100057.78;4937165;58;21205;-76
2021/07/29 18:14:04;;;;;;;5.50;2.47;;;;;;;24.07;43.10;100064.94;4928988;59;21532;-75
2021/07/29 18:19:10;;;;;;;7.90;2.37;;;;;;;23.92;43.27;100067.63;4942344;59;21119;-76
2021/07/29 18:24:15;;;;;;;4.78;2.70;;;;;;;23.81;43.53;100068.63;4929981;59;22073;-75
2021/07/29 18:29:25;;;;;;;6.40;2.08;;;;;;;23.74;43.78;100073.22;4917649;59;21178;-77
2021/07/29 18:34:32;;;;;;;3.35;2.08;;;;;;;23.68;43.90;100066.52;5012998;58;21167;-78
2021/07/29 18:39:38;;;;;;;10.20;2.70;;;;;;;23.60;44.45;100070.80;4937712;59;21178;-77
2021/07/29 18:44:44;;;;;;;5.80;2.83;;;;;;;23.52;44.77;100067.01;4913583;59;21249;-77
2021/07/29 18:49:49;;;;;;;4.10;2.85;;;;;;;23.43;45.42;100075.30;5035538;58;21214;-76
2021/07/29 18:54:55;;;;;;;5.90;2.30;;;;;;;23.33;45.92;100075.45;5035456;58;21160;-77
2021/07/29 19:00:01;;;;;;;4.75;2.92;;;;;;;23.21;46.31;100082.55;4988086;58;21158;-77
2021/07/29 19:05:08;;;;;;;8.18;2.95;;;;;;;23.09;46.32;100084.52;4999590;57;21224;-76
2021/07/29 19:10:14;;;;;;;7.42;2.12;;;;;;;23.01;46.56;100092.02;4861915;60;21176;-78
2021/07/29 19:15:20;;;;;;;4.62;3.10;;;;;;;22.92;46.74;100095.95;4936623;58;21198;-77
2021/07/29 19:20:26;;;;;;;8.40;3.55;;;;;;;22.83;46.89;100101.27;4951549;58;21174;-77
2021/07/29 19:25:32;;;;;;;2.70;2.50;;;;;;;22.75;47.18;100107.69;4855777;59;21530;-78
2021/07/29 19:30:39;;;;;;;3.85;2.95;;;;;;;22.67;47.32;100112.75;4953179;59;21205;-78
2021/07/29 19:35:45;;;;;;;18.10;6.15;;;;;;;22.62;47.45;100111.19;4930100;59;21575;-78
2021/07/29 19:40:51;;;;;;;17.65;8.78;;;;;;;22.55;47.64;100106.33;4859247;59;21208;-78
2021/07/29 19:45:57;;;;;;;11.22;7.25;;;;;;;22.52;47.77;100119.38;4870239;59;21185;-76
2021/07/29 19:51:02;;;;;;;17.87;6.10;;;;;;;22.43;48.17;100125.50;4866766;59;21130;-78
2021/07/29 19:56:09;;;;;;;13.75;4.75;;;;;;;22.35;48.30;100125.16;4940703;59;21235;-77
2021/07/29 20:01:14;;;;;;;4.80;3.52;;;;;;;22.31;48.46;100127.12;4973610;58;27738;-77
2021/07/29 20:06:21;;;;;;;17.80;4.25;;;;;;;22.24;48.77;100127.12;5066792;56;21158;-76
2021/07/29 20:11:27;;;;;;;6.60;3.00;;;;;;;22.16;49.12;100121.08;4972486;58;21178;-76
2021/07/29 20:16:32;;;;;;;3.55;2.87;;;;;;;22.08;49.34;100129.67;5050169;56;21537;-77
2021/07/29 20:21:38;;;;;;;16.48;3.25;;;;;;;21.97;49.36;100127.55;4966114;58;21209;-77
2021/07/29 20:26:44;;;;;;;10.60;2.85;;;;;;;21.90;49.35;100127.20;4888699;58;21188;-76
2021/07/29 20:31:50;;;;;;;11.70;3.77;;;;;;;21.79;49.43;100129.13;4960434;58;21493;-77
2021/07/29 20:36:56;;;;;;;20.97;6.37;;;;;;;21.69;49.55;100128.97;4895394;58;21209;-76
2021/07/29 20:42:03;;;;;;;13.72;4.10;;;;;;;21.62;49.51;100134.02;5071607;56;21159;-77
2021/07/29 20:47:08;;;;;;;44.63;14.05;;;;;;;21.53;49.52;100126.64;4919308;58;21513;-76
2021/07/29 20:52:15;;;;;;;14.85;4.87;;;;;;;21.47;49.66;100129.28;4966645;58;22225;-76
2021/07/29 20:57:21;;;;;;;27.80;9.18;;;;;;;21.48;49.83;100130.44;4832535;59;21185;-77
2021/07/29 21:02:26;;;;;;;20.08;9.30;;;;;;;21.45;49.96;100137.55;4960209;58;21172;-76
2021/07/29 21:07:32;;;;;;;31.10;14.20;;;;;;;21.41;50.41;100138.45;4928946;58;21597;-77
2021/07/29 21:12:38;;;;;;;36.25;20.00;;;;;;;21.41;50.60;100133.59;4881047;57;21112;-77
2021/07/29 21:17:44;;;;;;;29.23;20.43;;;;;;;21.44;51.33;100133.20;4856216;58;21123;-76
2021/07/29 21:22:50;;;;;;;29.00;17.65;;;;;;;21.48;51.94;100142.55;4866343;59;22114;-76
2021/07/29 21:27:56;;;;;;;20.25;6.97;;;;;;;21.49;52.48;100141.52;4874575;58;22128;-76
2021/07/29 21:33:02;;;;;;;29.05;6.58;;;;;;;21.49;52.16;100144.20;4904180;59;21185;-77
2021/07/29 21:38:08;;;;;;;15.28;5.33;;;;;;;21.45;52.09;100148.83;4902590;59;21224;-76
2021/07/29 21:43:15;;;;;;;23.95;9.08;;;;;;;21.40;52.25;100142.17;4911043;60;22185;-76
2021/07/29 21:48:20;;;;;;;17.90;7.95;;;;;;;21.36;52.51;100150.86;4820674;60;21184;-77
2021/07/29 21:53:26;;;;;;;24.47;10.90;;;;;;;21.33;52.61;100152.09;4901554;58;21183;-78
2021/07/29 21:58:31;;;;;;;18.07;5.92;;;;;;;21.28;52.65;100146.45;4910291;59;21118;-77
2021/07/29 22:03:37;;;;;;;17.70;4.83;;;;;;;21.23;52.83;100141.38;4903370;59;22174;-76
2021/07/29 22:08:43;;;;;;;11.30;5.17;;;;;;;20.98;52.76;100148.49;4880342;58;21202;-76
2021/07/29 22:13:49;;;;;;;13.72;4.75;;;;;;;20.75;53.37;100155.14;4950558;58;22176;-77
2021/07/29 22:18:55;;;;;;;8.25;4.25;;;;;;;20.71;53.82;100168.12;4959703;58;21191;-77
2021/07/29 22:24:00;;;;;;;8.98;5.05;;;;;;;20.69;54.05;100160.25;4962300;58;22166;-77
2021/07/29 22:29:07;;;;;;;8.03;4.28;;;;;;;20.69;54.53;100164.80;5109223;57;21178;-77
2021/07/29 22:34:13;;;;;;;8.65;4.15;;;;;;;20.64;54.64;100163.19;5116259;58;21158;-77
2021/07/29 22:39:19;;;;;;;7.85;3.65;;;;;;;20.53;54.73;100164.55;5110206;57;21189;-76
2021/07/29 22:44:25;;;;;;;10.00;4.58;;;;;;;20.43;55.17;100168.06;5114077;57;21198;-76
2021/07/29 22:49:30;;;;;;;13.80;4.87;;;;;;;20.41;55.48;100160.70;5109668;58;21544;-77
2021/07/29 22:54:36;;;;;;;9.30;4.72;;;;;;;20.36;55.70;100167.98;5116956;57;21663;-77
2021/07/29 22:59:42;;;;;;;14.43;4.08;;;;;;;20.34;55.90;100168.66;5110315;57;21501;-76
2021/07/29 23:04:48;;;;;;;8.90;4.47;;;;;;;20.26;55.99;100168.79;5114604;58;21154;-77
2021/07/29 23:09:53;;;;;;;27.93;5.03;;;;;;;20.01;56.04;100158.88;5091356;57;21197;-77
2021/07/29 23:14:59;;;;;;;17.10;5.40;;;;;;;19.92;56.65;100165.39;4964083;58;22110;-77
2021/07/29 23:20:05;;;;;;;11.18;4.80;;;;;;;19.91;56.87;100166.41;4943788;58;21266;-76
2021/07/29 23:28:08;;;;;;;9.07;4.67;;;;;;;19.90;57.02;100159.89;4963842;58;21211;-77
2021/07/29 23:30:34;;;;;;;23.02;4.40;;;;;;;19.80;57.07;100158.02;4957242;58;21711;-76
2021/07/29 23:35:39;;;;;;;25.55;4.80;;;;;;;19.70;57.46;100166.36;4986050;58;21190;-77
2021/07/29 23:40:45;;;;;;;20.12;5.20;;;;;;;19.63;57.80;100168.11;4982253;58;21775;-77
2021/07/29 23:45:51;;;;;;;4.78;4.08;;;;;;;19.43;57.97;100179.03;4981721;58;21151;-76
2021/07/29 23:50:57;;;;;;;4.80;3.92;;;;;;;19.24;58.00;100179.09;4954722;58;21190;-77
2021/07/29 23:56:02;;;;;;;6.08;3.70;;;;;;;19.17;58.03;100176.80;4959665;58;22091;-76
